Time;durP1;ratioP1;P1;durP2;ratioP2;P2;SDS_P1;SDS_P2;PMS_P1;PMS_P2;Temp;Humidity;BMP_temperature;BMP_pressure;BME280_temperature;BME280_humidity;BME280_pressure;Samples;Min_cycle;Max_cycle;Signal;HPM_P1;HPM_P2
2022/09/12 00:01:57;;;;;;;25.40;19.63;;;13.50;1.00;;;;;;5030727;28;20376;-61
2022/09/12 00:04:23;;;;;;;24.05;19.75;;;;;;;;;;5029893;28;20091;-60
2022/09/12 00:06:49;;;;;;;25.55;21.33;;;13.30;1.00;;;;;;5030516;28;20495;-60
2022/09/12 00:09:15;;;;;;;23.98;19.48;;;14.20;1.00;;;;;;5025100;28;20052;-60
2022/09/12 00:11:42;;;;;;;23.48;19.70;;;;;;;;;;5028538;28;20037;-60
2022/09/12 00:14:11;;;;;;;25.65;19.25;;;13.40;1.00;;;;;;5030721;28;20029;-60
2022/09/12 00:16:37;;;;;;;27.00;20.85;;;13.00;1.00;;;;;;5029025;28;20042;-60
2022/09/12 00:19:04;;;;;;;23.40;18.92;;;14.00;1.00;;;;;;5022835;28;20033;-60
2022/09/12 00:21:33;;;;;;;27.00;20.80;;;13.90;1.00;;;;;;5027075;28;20049;-60
2022/09/12 00:23:59;;;;;;;26.63;18.88;;;13.30;1.00;;;;;;5021133;28;20039;-60
2022/09/12 00:26:24;;;;;;;25.05;19.55;;;13.30;1.00;;;;;;5030320;28;20686;-60
2022/09/12 00:28:50;;;;;;;24.35;18.75;;;13.40;1.00;;;;;;5027493;28;20041;-59
2022/09/12 00:31:20;;;;;;;22.63;18.90;;;13.20;1.00;;;;;;5030137;28;20385;-60
2022/09/12 00:33:46;;;;;;;24.13;18.27;;;13.30;1.00;;;;;;5029778;28;20052;-60
2022/09/12 00:36:20;;;;;;;19.60;16.38;;;12.90;1.00;;;;;;5029609;28;20037;-60
2022/09/12 00:38:46;;;;;;;;;;;12.90;1.00;;;;;;5029959;28;20472;-61
2022/09/12 00:41:19;;;;;;;20.98;14.73;;;13.80;1.00;;;;;;5029335;28;19997;-60
2022/09/12 00:43:49;;;;;;;18.58;14.80;;;13.90;1.00;;;;;;5029435;28;20423;-61
2022/09/12 00:46:38;;;;;;;26.20;15.05;;;13.10;1.00;;;;;;5012310;28;20124;-61
2022/09/12 00:49:12;;;;;;;19.13;13.00;;;;;;;;;;5029619;28;20092;-61
2022/09/12 00:51:40;;;;;;;39.45;13.38;;;13.40;1.00;;;;;;4995952;28;20041;-60
2022/09/12 00:54:12;;;;;;;45.55;13.90;;;13.20;1.00;;;;;;5029759;28;20515;-60
2022/09/12 00:56:41;;;;;;;26.70;12.43;;;12.90;1.00;;;;;;5029674;28;20416;-61
2022/09/12 00:59:14;;;;;;;14.13;11.45;;;13.00;1.00;;;;;;5029608;28;20037;-61
2022/09/12 01:01:42;;;;;;;14.02;11.15;;;12.80;1.00;;;;;;5029930;28;20049;-61
2022/09/12 01:04:10;;;;;;;28.08;13.07;;;12.90;1.00;;;;;;5027115;28;20038;-61
2022/09/12 01:06:38;;;;;;;38.80;15.45;;;;;;;;;;5004456;28;20054;-61
2022/09/12 01:09:04;;;;;;;16.73;12.65;;;12.80;1.00;;;;;;5024444;28;20095;-61
2022/09/12 01:11:33;;;;;;;28.83;13.88;;;12.90;1.00;;;;;;4997437;28;20117;-61
2022/09/12 01:13:58;;;;;;;49.55;15.73;;;12.90;1.00;;;;;;5008651;28;20038;-61
2022/09/12 01:16:24;;;;;;;28.00;14.27;;;12.70;1.00;;;;;;5030034;28;20036;-61
2022/09/12 01:19:11;;;;;;;32.35;13.38;;;12.80;1.00;;;;;;5029577;28;20041;-61
2022/09/12 01:21:56;;;;;;;29.55;14.20;;;;;;;;;;5026625;28;20049;-61
2022/09/12 01:24:30;;;;;;;25.83;14.75;;;12.70;1.00;;;;;;5020773;28;20120;-61
2022/09/12 01:27:34;;;;;;;22.70;12.68;;;12.90;1.00;;;;;;5028825;28;20515;-61
2022/09/12 01:30:15;;;;;;;23.52;12.88;;;13.30;1.00;;;;;;5030283;28;20038;-61
2022/09/12 01:32:59;;;;;;;56.13;15.90;;;12.90;1.00;;;;;;5013709;28;20045;-61
2022/09/12 01:35:41;;;;;;;16.33;13.17;;;13.00;1.00;;;;;;5030021;28;20079;-61
2022/09/12 01:38:23;;;;;;;23.23;14.65;;;;;;;;;;5022942;28;20087;-61
2022/09/12 01:41:09;;;;;;;17.25;13.60;;;;;;;;;;5015954;28;20132;-61
2022/09/12 01:43:48;;;;;;;16.88;14.10;;;;;;;;;;5019014;28;20049;-61
2022/09/12 01:46:13;;;;;;;17.70;14.40;;;12.70;1.00;;;;;;5029482;28;20039;-61
2022/09/12 01:48:43;;;;;;;17.35;14.82;;;;;;;;;;5028982;28;20140;-61
2022/09/12 01:51:30;;;;;;;19.08;14.52;;;12.00;1.00;;;;;;5029762;28;20509;-60
2022/09/12 01:54:14;;;;;;;17.13;13.85;;;12.40;1.00;;;;;;5013278;28;20042;-61
2022/09/12 01:56:45;;;;;;;20.15;14.02;;;;;;;;;;5033034;28;20116;-61
2022/09/12 01:59:37;;;;;;;16.17;13.52;;;12.90;1.00;;;;;;5032944;28;20045;-60
2022/09/12 02:02:08;;;;;;;17.45;12.40;;;12.50;1.00;;;;;;5032582;28;20045;-60
2022/09/12 02:05:01;;;;;;;14.40;12.07;;;12.30;1.00;;;;;;5027844;28;20045;-61
2022/09/12 02:07:34;;;;;;;16.33;13.45;;;12.50;1.00;;;;;;5032878;28;20462;-61
2022/09/12 02:10:08;;;;;;;15.52;12.93;;;11.60;1.00;;;;;;5020625;28;20047;-61
2022/09/12 02:12:38;;;;;;;17.90;12.70;;;;;;;;;;5030673;28;20037;-60
2022/09/12 02:15:07;;;;;;;22.83;13.02;;;;;;;;;;5032620;28;20103;-59
2022/09/12 02:17:39;;;;;;;25.50;14.23;;;12.50;1.00;;;;;;5027983;28;20116;-61
2022/09/12 02:20:18;;;;;;;25.30;14.63;;;12.40;1.00;;;;;;5032834;28;20454;-60
2022/09/12 02:22:46;;;;;;;57.50;15.95;;;12.50;1.00;;;;;;5024741;28;20073;-60
2022/09/12 02:25:14;;;;;;;32.30;13.00;;;12.20;1.00;;;;;;5021841;28;20037;-60
2022/09/12 02:27:48;;;;;;;42.13;13.63;;;12.70;1.00;;;;;;5025653;28;20049;-61
2022/09/12 02:30:15;;;;;;;37.42;15.50;;;;;;;;;;5008030;28;20095;-61
2022/09/12 02:32:57;;;;;;;63.17;19.42;;;12.20;1.00;;;;;;5021496;28;20041;-61
2022/09/12 02:35:55;;;;;;;21.45;14.60;;;;;;;;;;5020188;28;20061;-61
2022/09/12 02:38:51;;;;;;;20.40;15.10;;;12.50;1.00;;;;;;4994908;28;20344;-61
2022/09/12 02:41:19;;;;;;;13.75;11.48;;;11.70;1.00;;;;;;5009806;28;20041;-61
2022/09/12 02:43:46;;;;;;;14.40;12.38;;;12.20;1.00;;;;;;5013409;28;20087;-61
2022/09/12 02:46:23;;;;;;;15.75;12.48;;;;;;;;;;5026207;28;20065;-60
2022/09/12 02:48:48;;;;;;;15.52;12.48;;;12.10;1.00;;;;;;4997191;28;20524;-60
2022/09/12 02:51:14;;;;;;;15.13;12.80;;;12.10;1.00;;;;;;5017782;28;20065;-61
2022/09/12 02:53:41;;;;;;;15.23;11.68;;;;;;;;;;5023685;28;20033;-61
2022/09/12 02:56:11;;;;;;;15.80;13.48;;;11.50;1.00;;;;;;5010678;28;20053;-61
2022/09/12 02:58:36;;;;;;;15.13;12.88;;;12.10;1.00;;;;;;5004958;28;20034;-61
2022/09/12 03:01:21;;;;;;;15.25;12.70;;;;;;;;;;4981687;28;20048;-61
2022/09/12 03:04:03;;;;;;;17.90;14.73;;;;;;;;;;5019295;28;20064;-60
2022/09/12 03:06:35;;;;;;;15.95;13.15;;;;;;;;;;5023676;28;20112;-61
2022/09/12 03:09:16;;;;;;;18.13;13.55;;;12.70;1.00;;;;;;5000941;28;20049;-61
2022/09/12 03:11:53;;;;;;;16.73;13.80;;;12.40;1.00;;;;;;5014693;28;20500;-60
2022/09/12 03:15:00;;;;;;;18.95;14.27;;;12.50;1.00;;;;;;5020726;28;20108;-60
2022/09/12 03:17:38;;;;;;;17.65;12.85;;;;;;;;;;5017990;28;20439;-61
2022/09/12 03:20:13;;;;;;;16.90;12.75;;;12.20;1.00;;;;;;5017359;28;20124;-61
2022/09/12 03:22:55;;;;;;;19.60;13.40;;;12.40;1.00;;;;;;5021685;28;20495;-61
2022/09/12 03:25:27;;;;;;;19.35;14.30;;;;;;;;;;5016757;28;20042;-61
2022/09/12 03:27:57;;;;;;;17.58;14.50;;;;;;;;;;5022981;28;20391;-61
2022/09/12 03:30:24;;;;;;;15.82;13.32;;;;;;;;;;5024236;28;20445;-61
2022/09/12 03:32:52;;;;;;;19.65;14.10;;;11.50;1.00;;;;;;5004940;28;20037;-61
2022/09/12 03:35:20;;;;;;;18.33;13.70;;;12.30;1.00;;;;;;5018436;28;20070;-61
2022/09/12 03:37:47;;;;;;;16.10;13.15;;;11.50;1.00;;;;;;5029699;28;20399;-61
2022/09/12 03:40:14;;;;;;;13.07;10.85;;;;;;;;;;5017934;28;20565;-61
2022/09/12 03:42:40;;;;;;;18.25;12.98;;;;;;;;;;5046243;22;20576;-87
2022/09/12 03:45:07;;;;;;;18.45;12.80;;;;;;;;;;4979829;28;20393;-86
2022/09/12 03:47:33;;;;;;;23.27;14.95;;;12.20;1.00;;;;;;4992951;28;20037;-86
2022/09/12 03:49:59;;;;;;;18.23;14.13;;;12.50;1.00;;;;;;4983722;28;20455;-86
2022/09/12 03:52:24;;;;;;;21.10;15.10;;;12.40;1.00;;;;;;5008245;28;20412;-86
2022/09/12 03:54:50;;;;;;;22.25;15.77;;;;;;;;;;5002559;28;20042;-88
2022/09/12 03:57:16;;;;;;;23.20;16.30;;;12.30;1.00;;;;;;4991233;28;20041;-88
2022/09/12 03:59:42;;;;;;;20.80;14.57;;;12.50;1.00;;;;;;4984823;28;20072;-87
2022/09/12 04:02:11;;;;;;;21.10;16.17;;;12.40;1.00;;;;;;5007323;28;20448;-88
2022/09/12 04:04:37;;;;;;;25.33;16.92;;;12.50;1.00;;;;;;4989835;28;20786;-87
2022/09/12 04:07:03;;;;;;;25.45;19.42;;;12.70;1.00;;;;;;4988664;28;20076;-88
2022/09/12 04:09:28;;;;;;;28.55;20.00;;;12.70;1.00;;;;;;4991125;28;20052;-86
2022/09/12 04:11:54;;;;;;;24.98;18.55;;;12.60;1.00;;;;;;5020843;28;20104;-89
2022/09/12 04:14:20;;;;;;;24.95;17.55;;;12.60;1.00;;;;;;5007163;28;20056;-89
2022/09/12 04:16:45;;;;;;;30.25;19.83;;;12.70;1.00;;;;;;5017195;28;20261;-87
2022/09/12 04:19:12;;;;;;;38.22;23.63;;;;;;;;;;5007193;28;20076;-87
2022/09/12 04:21:38;;;;;;;36.22;23.30;;;13.00;1.00;;;;;;5016711;28;20152;-92
2022/09/12 04:24:04;;;;;;;36.90;25.77;;;13.00;1.00;;;;;;5039618;28;20056;-89
2022/09/12 04:26:30;;;;;;;30.40;22.77;;;12.40;1.00;;;;;;4997154;28;20053;-89
2022/09/12 04:28:56;;;;;;;37.78;27.08;;;12.80;1.00;;;;;;5002760;28;20041;-88
2022/09/12 04:31:23;;;;;;;42.55;28.35;;;13.20;1.00;;;;;;5021233;28;20044;-87
2022/09/12 04:33:56;;;;;;;43.03;29.02;;;;;;;;;;5006404;28;20076;-86
2022/09/12 04:36:23;;;;;;;45.55;28.55;;;13.90;1.00;;;;;;5003460;28;20412;-86
2022/09/12 04:38:49;;;;;;;43.45;28.23;;;13.40;1.00;;;;;;4988275;28;20110;-86
2022/09/12 04:41:16;;;;;;;40.50;28.17;;;13.50;1.00;;;;;;4998732;28;20048;-88
2022/09/12 04:43:45;;;;;;;45.08;29.15;;;13.70;1.00;;;;;;5022123;28;20049;-89
2022/09/12 04:46:14;;;;;;;37.45;27.70;;;13.30;1.00;;;;;;5033716;28;20044;-88
2022/09/12 04:48:40;;;;;;;41.40;28.55;;;13.60;1.00;;;;;;5002976;28;20109;-89
2022/09/12 04:51:15;;;;;;;41.75;28.98;;;13.50;1.00;;;;;;5004588;28;20416;-90
2022/09/12 04:53:41;;;;;;;38.78;27.90;;;13.70;1.00;;;;;;4984568;28;20347;-86
2022/09/12 04:56:10;;;;;;;38.15;27.13;;;13.80;1.00;;;;;;4991474;28;20038;-87
2022/09/12 04:58:36;;;;;;;40.42;28.00;;;14.00;1.00;;;;;;5039301;28;20115;-88
2022/09/12 05:01:16;;;;;;;35.25;25.17;;;;;;;;;;5006942;28;20041;-90
2022/09/12 05:03:44;;;;;;;35.25;27.42;;;14.00;1.00;;;;;;5004879;28;20111;-88
2022/09/12 05:06:16;;;;;;;35.83;26.38;;;13.60;1.00;;;;;;4974884;28;20034;-88
2022/09/12 05:08:42;;;;;;;38.03;27.35;;;13.90;1.00;;;;;;4999430;28;20045;-86
2022/09/12 05:11:11;;;;;;;32.15;25.60;;;13.90;1.00;;;;;;4994762;28;20497;-82
2022/09/12 05:13:38;;;;;;;35.88;26.77;;;13.40;1.00;;;;;;4974890;28;20038;-85
2022/09/12 05:16:05;;;;;;;37.78;27.08;;;14.30;1.00;;;;;;4980034;28;20527;-84
2022/09/12 05:18:35;;;;;;;33.53;24.95;;;13.60;1.00;;;;;;5021614;28;20077;-83
2022/09/12 05:21:03;;;;;;;34.38;26.52;;;13.60;1.00;;;;;;4996408;28;20037;-82
2022/09/12 05:23:29;;;;;;;31.48;25.58;;;14.40;1.00;;;;;;5000631;28;20623;-81
2022/09/12 05:25:57;;;;;;;34.33;24.10;;;14.60;1.00;;;;;;5005022;28;20061;-83
2022/09/12 05:28:27;;;;;;;34.53;25.27;;;14.00;1.00;;;;;;4990366;28;20040;-82
2022/09/12 05:31:03;;;;;;;33.95;24.38;;;;;;;;;;4998904;28;20084;-83
2022/09/12 05:33:30;;;;;;;32.55;23.60;;;14.10;1.00;;;;;;4980836;28;20049;-82
2022/09/12 05:35:56;;;;;;;34.17;23.98;;;13.60;1.00;;;;;;4987436;28;20463;-81
2022/09/12 05:38:27;;;;;;;31.58;23.23;;;14.50;1.00;;;;;;5006114;28;20259;-81
2022/09/12 05:40:53;;;;;;;33.15;22.95;;;14.60;1.00;;;;;;5023898;28;20124;-84
2022/09/12 05:43:19;;;;;;;30.50;23.48;;;13.50;1.00;;;;;;4986505;28;20103;-83
2022/09/12 05:45:45;;;;;;;33.60;23.25;;;14.60;1.00;;;;;;5007637;28;20107;-84
2022/09/12 05:48:12;;;;;;;30.00;22.45;;;;;;;;;;4999022;28;20038;-83
2022/09/12 05:50:38;;;;;;;30.20;22.35;;;14.30;1.00;;;;;;4989795;28;20041;-82
2022/09/12 05:53:03;;;;;;;32.53;21.10;;;14.60;1.00;;;;;;5009020;28;20048;-83
2022/09/12 05:55:30;;;;;;;29.48;22.88;;;14.70;1.00;;;;;;5006038;28;20054;-80
2022/09/12 05:57:55;;;;;;;31.52;23.42;;;14.60;1.00;;;;;;4987546;28;20046;-84
2022/09/12 06:00:21;;;;;;;29.30;23.00;;;14.40;1.00;;;;;;5005015;28;20037;-80
2022/09/12 06:02:53;;;;;;;31.45;22.77;;;14.70;1.00;;;;;;5005737;28;20067;-83
2022/09/12 06:05:19;;;;;;;30.40;23.17;;;14.60;1.00;;;;;;5003636;28;20075;-81
2022/09/12 06:07:47;;;;;;;26.98;22.58;;;14.60;1.00;;;;;;4987141;28;20096;-83
2022/09/12 06:10:14;;;;;;;30.77;23.40;;;13.30;1.00;;;;;;5005772;28;20061;-83
2022/09/12 06:12:40;;;;;;;28.77;22.80;;;14.80;1.00;;;;;;5008930;28;20884;-82
2022/09/12 06:15:07;;;;;;;27.58;22.60;;;;;;;;;;5004811;28;20387;-84
2022/09/12 06:17:33;;;;;;;27.70;22.00;;;;;;;;;;5006028;28;20571;-82
2022/09/12 06:19:59;;;;;;;29.05;21.38;;;14.80;1.00;;;;;;5002909;28;20579;-82
2022/09/12 06:22:27;;;;;;;28.05;21.90;;;14.50;1.00;;;;;;4986909;28;20045;-83
2022/09/12 06:24:53;;;;;;;28.67;22.23;;;14.30;1.00;;;;;;4982997;28;20125;-84
2022/09/12 06:27:18;;;;;;;26.55;20.75;;;14.90;1.00;;;;;;5003239;28;20072;-82
2022/09/12 06:29:44;;;;;;;26.45;22.10;;;14.90;1.00;;;;;;5003629;28;20041;-84
2022/09/12 06:32:10;;;;;;;25.98;21.30;;;15.00;1.00;;;;;;4991456;28;20037;-83
2022/09/12 06:34:36;;;;;;;26.05;21.10;;;14.50;1.00;;;;;;5004096;28;20053;-84
2022/09/12 06:37:02;;;;;;;25.50;20.88;;;16.10;1.00;;;;;;4986210;28;20041;-83
2022/09/12 06:39:30;;;;;;;25.52;20.75;;;15.10;1.00;;;;;;5003437;28;20152;-83
2022/09/12 06:41:55;;;;;;;28.17;22.45;;;15.10;1.00;;;;;;4999159;28;20041;-83
2022/09/12 06:44:21;;;;;;;25.88;20.25;;;15.80;1.00;;;;;;5022222;28;20094;-82
2022/09/12 06:46:47;;;;;;;25.35;19.80;;;15.20;1.00;;;;;;5001162;28;20420;-81
2022/09/12 06:49:13;;;;;;;25.42;19.50;;;15.30;1.00;;;;;;4987589;28;20049;-84
2022/09/12 06:51:43;;;;;;;21.98;18.05;;;14.70;1.00;;;;;;5003822;28;20139;-83
2022/09/12 06:54:12;;;;;;;24.85;20.67;;;14.90;1.00;;;;;;4982065;28;20049;-83
2022/09/12 06:56:38;;;;;;;24.08;20.02;;;15.40;1.00;;;;;;4998211;28;20077;-84
2022/09/12 06:59:03;;;;;;;26.63;21.60;;;15.30;1.00;;;;;;4984849;28;20161;-84
2022/09/12 07:01:30;;;;;;;25.48;20.10;;;15.50;1.00;;;;;;5003421;28;20402;-83
2022/09/12 07:03:58;;;;;;;22.73;18.45;;;16.00;1.00;;;;;;4989438;28;20038;-83
2022/09/12 07:06:30;;;;;;;25.15;20.27;;;15.90;1.00;;;;;;5002772;28;20072;-83
2022/09/12 07:09:01;;;;;;;25.08;19.55;;;16.00;1.00;;;;;;5004139;28;20616;-82
2022/09/12 07:11:30;;;;;;;25.83;19.77;;;16.30;1.00;;;;;;4987406;28;20120;-84
2022/09/12 07:13:58;;;;;;;28.10;20.75;;;16.20;1.00;;;;;;5009252;28;20052;-84
2022/09/12 07:16:24;;;;;;;24.17;19.95;;;15.70;1.00;;;;;;4989433;28;20081;-84
2022/09/12 07:19:00;;;;;;;25.95;19.38;;;16.00;1.00;;;;;;4991785;28;20501;-84
2022/09/12 07:21:27;;;;;;;26.95;19.85;;;15.30;1.00;;;;;;5000090;28;20036;-82
2022/09/12 07:23:56;;;;;;;23.55;18.30;;;16.20;1.00;;;;;;5002837;28;20072;-84
2022/09/12 07:26:24;;;;;;;25.17;19.90;;;16.60;1.00;;;;;;5008465;28;20097;-84
2022/09/12 07:28:54;;;;;;;27.42;21.13;;;16.20;1.00;;;;;;5002971;28;20042;-84
2022/09/12 07:31:22;;;;;;;26.80;20.85;;;16.00;1.00;;;;;;4989780;28;20071;-84
2022/09/12 07:33:49;;;;;;;27.92;20.45;;;16.80;1.00;;;;;;5007755;28;20048;-84
2022/09/12 07:36:17;;;;;;;25.33;20.05;;;16.20;1.00;;;;;;4990527;28;20037;-84
2022/09/12 07:38:43;;;;;;;29.05;23.15;;;16.10;1.00;;;;;;4988702;28;20041;-84
2022/09/12 07:41:14;;;;;;;27.27;21.70;;;16.80;1.00;;;;;;4990688;28;20045;-83
2022/09/12 07:43:43;;;;;;;24.15;18.95;;;16.80;1.00;;;;;;4990719;28;20103;-84
2022/09/12 07:46:09;;;;;;;29.77;22.80;;;16.60;1.00;;;;;;4985205;28;20044;-82
2022/09/12 07:48:35;;;;;;;27.75;22.50;;;17.70;1.00;;;;;;4978827;28;20037;-83
2022/09/12 07:51:04;;;;;;;26.55;21.40;;;17.00;1.00;;;;;;4989038;28;20177;-84
2022/09/12 07:53:35;;;;;;;27.42;21.58;;;17.30;1.00;;;;;;5005427;28;20371;-81
2022/09/12 07:56:06;;;;;;;25.77;21.17;;;17.10;1.00;;;;;;5005147;28;20458;-85
2022/09/12 07:58:33;;;;;;;28.95;21.77;;;17.10;1.00;;;;;;4984421;28;20046;-84
2022/09/12 08:01:07;;;;;;;29.02;23.40;;;17.50;1.00;;;;;;4987107;28;20041;-83
2022/09/12 08:03:33;;;;;;;26.95;20.80;;;17.30;1.00;;;;;;5000359;28;20037;-83
2022/09/12 08:06:15;;;;;;;31.50;24.20;;;17.10;1.00;;;;;;5002448;28;20111;-83
2022/09/12 08:08:41;;;;;;;31.77;25.30;;;17.30;1.00;;;;;;5003663;28;20460;-83
2022/09/12 08:11:10;;;;;;;30.88;22.77;;;17.40;1.00;;;;;;5001889;28;20115;-84
2022/09/12 08:13:37;;;;;;;30.95;23.73;;;17.50;1.00;;;;;;5003572;28;20144;-84
2022/09/12 08:16:07;;;;;;;33.20;24.35;;;18.70;1.00;;;;;;5002110;28;20087;-83
2022/09/12 08:18:35;;;;;;;32.03;24.05;;;17.90;1.00;;;;;;4981856;28;20045;-81
2022/09/12 08:21:06;;;;;;;33.40;23.40;;;17.90;1.00;;;;;;5005246;28;20048;-84
2022/09/12 08:23:32;;;;;;;29.02;23.60;;;18.80;1.00;;;;;;4985139;28;20061;-84
2022/09/12 08:26:01;;;;;;;36.20;26.73;;;18.60;1.00;;;;;;4997274;28;20037;-84
2022/09/12 08:28:29;;;;;;;34.75;26.58;;;20.60;1.00;;;;;;5000409;28;20037;-84
2022/09/12 08:31:10;;;;;;;35.72;26.23;;;18.90;1.00;;;;;;5014960;28;20037;-84
2022/09/12 08:33:36;;;;;;;35.85;26.85;;;19.20;1.00;;;;;;4982925;28;20123;-84
2022/09/12 08:36:09;;;;;;;33.15;25.17;;;18.90;1.00;;;;;;5000372;28;20129;-84
2022/09/12 08:38:36;;;;;;;31.45;24.95;;;18.60;1.00;;;;;;4993176;28;20370;-84
2022/09/12 08:41:29;;;;;;;39.00;26.83;;;19.30;1.00;;;;;;4981761;28;20046;-84
2022/09/12 08:44:22;;;;;;;37.20;27.90;;;18.90;1.00;;;;;;4993243;28;20050;-84
2022/09/12 08:47:16;;;;;;;36.80;28.35;;;19.00;1.00;;;;;;5003554;28;20135;-82
2022/09/12 08:50:07;;;;;;;38.67;30.38;;;19.00;1.00;;;;;;4980984;28;20084;-84
2022/09/12 08:52:52;;;;;;;41.33;30.45;;;19.00;1.00;;;;;;5017644;28;20041;-84
2022/09/12 08:55:30;;;;;;;;;;;18.40;1.00;;;;;;5001693;28;20091;-85
2022/09/12 08:57:58;;;;;;;38.53;29.02;;;19.00;1.00;;;;;;4976777;28;20348;-83
2022/09/12 09:00:43;;;;;;;43.05;31.70;;;19.50;1.00;;;;;;4979518;28;20171;-84
2022/09/12 09:03:15;;;;;;;;;;;19.40;1.00;;;;;;4987138;28;20037;-84
2022/09/12 09:06:10;;;;;;;45.33;33.72;;;18.70;1.00;;;;;;5024669;28;19984;-84
2022/09/12 09:08:51;;;;;;;47.40;35.28;;;18.70;1.00;;;;;;4999735;28;20121;-84
2022/09/12 09:11:23;;;;;;;44.05;32.90;;;19.10;1.00;;;;;;5007012;28;20041;-84
2022/09/12 09:16:49;;;;;;;44.88;31.73;;;19.00;1.00;;;;;;5027185;28;20049;-83
2022/09/12 09:19:22;;;;;;;43.70;30.80;;;19.50;1.00;;;;;;4994880;28;20070;-83
2022/09/12 09:21:59;;;;;;;40.65;30.70;;;19.90;1.00;;;;;;4996596;28;20126;-84
2022/09/12 09:24:32;;;;;;;40.65;29.30;;;19.20;1.00;;;;;;5003817;28;20046;-83
2022/09/12 09:27:05;;;;;;;38.25;28.65;;;19.30;99.90;;;;;;4983832;28;20041;-83
2022/09/12 09:29:44;;;;;;;37.65;28.52;;;19.70;99.90;;;;;;5003793;28;20278;-84
2022/09/12 09:32:17;;;;;;;35.60;25.83;;;19.70;99.90;;;;;;5006072;28;20446;-84
2022/09/12 09:34:43;;;;;;;34.95;24.17;;;20.00;99.90;;;;;;5008947;28;20049;-84
2022/09/12 09:37:17;;;;;;;32.78;24.90;;;20.00;99.90;;;;;;5005103;28;20037;-84
2022/09/12 09:40:05;;;;;;;31.95;22.77;;;21.30;99.90;;;;;;5008663;28;20045;-84
2022/09/12 09:43:13;;;;;;;32.40;23.23;;;20.50;99.90;;;;;;5009103;23;20038;-65
2022/09/12 09:45:40;;;;;;;29.85;21.10;;;20.40;99.90;;;;;;5012410;28;20037;-65
2022/09/12 09:48:18;;;;;;;31.27;22.70;;;;;;;;;;5001137;28;20042;-65
2022/09/12 09:50:47;;;;;;;27.10;21.05;;;20.70;99.90;;;;;;5008589;28;20105;-65
2022/09/12 09:53:22;;;;;;;26.45;20.55;;;;;;;;;;5001008;28;20038;-65
2022/09/12 09:55:48;;;;;;;25.90;19.38;;;20.70;99.90;;;;;;5008491;28;20065;-65
2022/09/12 09:58:34;;;;;;;27.58;19.52;;;20.60;99.90;;;;;;5006126;28;20038;-64
2022/09/12 10:01:02;;;;;;;22.23;17.02;;;20.50;99.90;;;;;;4999029;28;20491;-64
2022/09/12 10:03:38;;;;;;;24.77;18.25;;;20.80;99.90;;;;;;4997504;28;20038;-65
2022/09/12 10:06:29;;;;;;;22.42;14.75;;;20.60;99.90;;;;;;5002350;28;20116;-65
2022/09/12 10:09:26;;;;;;;19.88;14.40;;;20.70;99.90;;;;;;4993955;28;20038;-65
2022/09/12 10:11:52;;;;;;;18.73;12.88;;;20.60;99.90;;;;;;4994440;28;20038;-64
2022/09/12 10:14:33;;;;;;;22.85;15.35;;;21.30;99.90;;;;;;4994231;28;20271;-64
2022/09/12 10:17:00;;;;;;;24.00;15.13;;;20.40;99.90;;;;;;4994765;28;20037;-65
2022/09/12 10:19:41;;;;;;;21.27;16.30;;;20.90;99.90;;;;;;5002200;28;20057;-64
2022/09/12 10:22:17;;;;;;;22.05;15.55;;;20.60;99.90;;;;;;5002462;28;20030;-64
2022/09/12 10:24:49;;;;;;;23.20;16.70;;;20.80;99.90;;;;;;5004389;28;20053;-64
2022/09/12 10:27:25;;;;;;;19.70;13.65;;;;;;;;;;5003533;28;20107;-65
2022/09/12 10:30:14;;;;;;;21.05;15.00;;;20.60;99.90;;;;;;4994038;28;20493;-65
2022/09/12 10:32:44;;;;;;;21.80;14.80;;;20.90;99.90;;;;;;4994202;28;20042;-65
2022/09/12 10:35:32;;;;;;;21.02;14.80;;;21.70;99.90;;;;;;4999975;28;20038;-65
2022/09/12 10:38:01;;;;;;;21.90;16.40;;;21.20;99.90;;;;;;4995708;28;20122;-65
2022/09/12 10:40:40;;;;;;;21.55;14.90;;;21.00;99.90;;;;;;5005728;28;20052;-65
2022/09/12 10:43:25;;;;;;;19.70;14.25;;;20.90;99.90;;;;;;4996307;28;20429;-65
2022/09/12 10:45:50;;;;;;;21.27;15.23;;;21.30;99.90;;;;;;4994183;28;20084;-65
2022/09/12 10:48:30;;;;;;;17.27;13.00;;;21.20;99.90;;;;;;4995026;28;20070;-65
2022/09/12 10:50:57;;;;;;;19.92;13.27;;;;;;;;;;4981196;28;20038;-65
2022/09/12 10:53:42;;;;;;;16.63;12.18;;;21.80;99.90;;;;;;5003555;28;20487;-65
2022/09/12 10:56:17;;;;;;;;;;;22.50;99.90;;;;;;4997372;28;20555;-65
2022/09/12 10:59:20;;;;;;;18.30;13.55;;;22.50;99.90;;;;;;4993589;28;19917;-65
2022/09/12 11:01:57;;;;;;;18.48;12.38;;;21.90;99.90;;;;;;4981140;28;20101;-65
2022/09/12 11:04:31;;;;;;;16.80;12.02;;;22.60;99.90;;;;;;5000891;28;20136;-65
2022/09/12 11:07:34;;;;;;;18.30;11.20;;;22.30;99.90;;;;;;4994517;28;20042;-65
2022/09/12 11:10:27;;;;;;;17.60;11.95;;;22.00;99.90;;;;;;4993430;28;20049;-65
2022/09/12 11:13:01;;;;;;;13.95;9.65;;;22.60;99.90;;;;;;4997055;28;20492;-65
2022/09/12 11:16:00;;;;;;;13.57;9.15;;;22.80;99.90;;;;;;5001417;28;20080;-65
2022/09/12 11:18:47;;;;;;;12.43;7.90;;;23.30;99.90;;;;;;5001078;28;20510;-65
2022/09/12 11:21:27;;;;;;;13.73;7.15;;;22.60;99.90;;;;;;5001022;28;20038;-65
2022/09/12 11:24:11;;;;;;;12.38;7.43;;;22.90;99.90;;;;;;4995493;28;20033;-65
2022/09/12 11:27:05;;;;;;;11.35;8.32;;;23.00;99.90;;;;;;4994643;28;20049;-65
2022/09/12 11:29:39;;;;;;;13.07;7.57;;;23.20;99.90;;;;;;4988846;28;20407;-65
2022/09/12 11:32:28;;;;;;;11.65;8.43;;;23.70;99.90;;;;;;4993060;28;20046;-65
2022/09/12 11:35:19;;;;;;;12.20;8.52;;;23.70;99.90;;;;;;4993048;28;20061;-65
2022/09/12 11:38:01;;;;;;;11.52;8.40;;;24.50;99.90;;;;;;4999678;28;20033;-65
2022/09/12 11:40:29;;;;;;;13.85;7.55;;;24.30;99.90;;;;;;4993026;28;20188;-65
2022/09/12 11:43:02;;;;;;;13.13;8.70;;;24.30;99.90;;;;;;4996156;28;20042;-65
2022/09/12 11:45:39;;;;;;;13.20;9.40;;;24.60;99.90;;;;;;4996560;28;20128;-65
2022/09/12 11:48:11;;;;;;;12.30;8.75;;;24.30;99.90;;;;;;4995272;28;20775;-65
2022/09/12 11:50:37;;;;;;;10.85;7.30;;;24.40;99.90;;;;;;4998267;28;20044;-65
2022/09/12 11:53:26;;;;;;;9.63;6.68;;;24.10;99.90;;;;;;5001062;28;20034;-65
2022/09/12 11:56:05;;;;;;;9.35;6.05;;;23.90;99.90;;;;;;5000695;28;20039;-65
2022/09/12 11:58:30;;;;;;;8.75;6.68;;;24.20;99.90;;;;;;4999740;28;20038;-65
2022/09/12 12:01:12;;;;;;;11.02;8.50;;;24.10;99.90;;;;;;5000858;28;20029;-65
2022/09/12 12:03:44;;;;;;;11.32;7.68;;;23.70;99.90;;;;;;4995016;28;20043;-65
2022/09/12 12:06:21;;;;;;;10.07;6.45;;;24.20;99.90;;;;;;4997265;28;20046;-65
2022/09/12 12:08:49;;;;;;;10.65;6.88;;;24.90;99.90;;;;;;4994654;28;20104;-64
2022/09/12 12:11:32;;;;;;;8.70;6.47;;;24.30;99.90;;;;;;4977355;28;20556;-64
2022/09/12 12:14:18;;;;;;;9.10;6.40;;;25.40;99.90;;;;;;5000323;28;20443;-64
2022/09/12 12:16:44;;;;;;;8.75;6.10;;;25.40;99.90;;;;;;4992192;28;20042;-64
2022/09/12 12:19:16;;;;;;;10.43;6.13;;;25.90;99.90;;;;;;4992082;28;20113;-64
2022/09/12 12:21:44;;;;;;;9.27;6.13;;;26.00;99.90;;;;;;4992201;28;20046;-64
2022/09/12 12:24:12;;;;;;;11.32;6.72;;;26.40;99.90;;;;;;4992116;28;20092;-64
2022/09/12 12:26:37;;;;;;;13.43;7.68;;;27.10;99.90;;;;;;4991820;28;20377;-64
2022/09/12 12:29:15;;;;;;;10.60;7.25;;;27.30;99.90;;;;;;4991478;28;20113;-65
2022/09/12 12:32:06;;;;;;;10.82;7.45;;;27.00;99.90;;;;;;5000508;28;20043;-64
2022/09/12 12:34:45;;;;;;;11.10;7.78;;;27.60;99.90;;;;;;4995797;28;20041;-64
2022/09/12 12:37:20;;;;;;;9.40;7.03;;;27.80;99.90;;;;;;5003623;28;20030;-64
2022/09/12 12:39:49;;;;;;;10.63;7.85;;;28.00;99.90;;;;;;5000456;28;20092;-64
2022/09/12 12:42:35;;;;;;;11.80;8.15;;;28.00;99.90;;;;;;4994434;28;20053;-64
2022/09/12 12:45:07;;;;;;;9.95;7.38;;;28.70;99.90;;;;;;4997822;28;20496;-64
2022/09/12 12:47:43;;;;;;;10.40;7.80;;;29.20;99.90;;;;;;4977554;28;20038;-64
2022/09/12 12:50:20;;;;;;;10.40;7.60;;;28.70;99.90;;;;;;4998366;28;20531;-64
2022/09/12 12:52:56;;;;;;;10.48;7.32;;;29.40;99.90;;;;;;4994260;28;20085;-64
2022/09/12 12:55:48;;;;;;;10.73;8.10;;;28.00;99.90;;;;;;4996780;28;20034;-64
2022/09/12 12:58:38;;;;;;;11.07;6.93;;;28.70;99.90;;;;;;4992515;28;20486;-64
2022/09/12 13:01:16;;;;;;;9.13;7.07;;;27.50;99.90;;;;;;5002620;28;20081;-64
2022/09/12 13:03:59;;;;;;;9.13;6.72;;;27.00;99.90;;;;;;4993107;28;20496;-64
2022/09/12 13:06:38;;;;;;;9.07;6.63;;;26.60;99.90;;;;;;4991606;28;20496;-64
2022/09/12 13:09:08;;;;;;;9.73;5.65;;;26.60;99.90;;;;;;4991186;28;20411;-64
2022/09/12 13:11:39;;;;;;;7.80;5.50;;;26.70;99.90;;;;;;4991623;28;20204;-64
2022/09/12 13:14:29;;;;;;;7.30;5.35;;;29.00;99.90;;;;;;4996923;28;20042;-65
2022/09/12 13:16:59;;;;;;;8.68;5.07;;;29.50;99.90;;;;;;4991289;28;20034;-64
2022/09/12 13:19:31;;;;;;;9.18;5.40;;;30.50;99.90;;;;;;5005492;28;20044;-64
2022/09/12 13:22:00;;;;;;;8.85;6.10;;;30.70;99.90;;;;;;4998704;28;20460;-64